KABI/ABI METAR and TAF weather

Enter ICAO airport designator
Station Type Date Time Source
KABI METAR 2023/02/05 13:52 UTC NOAA

KABI 051352Z 00000KT 8SM CLR 05/03 A3015 RMK AO2 SLP208 T00500028


Station Type Date Time Source
KABI Decoded METAR 2023/02/05 13:52 UTC NOAA

ABILENE REGIONAL AIRPORT, TX, United States (KABI) 32-25N 099-41W 548M
Feb 05, 2023 - 08:52 AM EST / 2023.02.05 1352 UTC
Wind: Calm:0
Visibility: 8 mile(s):0
Sky conditions: clear
Temperature: 41.0 F (5.0 C)
Dew Point: 37.0 F (2.8 C)
Relative Humidity: 85%
Pressure (altimeter): 30.15 in. Hg (1020 hPa)
ob: KABI 051352Z 00000KT 8SM CLR 05/03 A3015 RMK AO2 SLP208 T00500028
cycle: 14

Station Type Date Time Source
KABI TAF 2023/02/05 12:22 UTC NOAA

TAF KABI 051120Z 0512/0612 VRB05KT P6SM SKC
FM060500 18012KT P6SM SKC

Example: see airport list